Bay Shore, Michigan
Current Conditions -  °F | °C
As of 10:55 AM on Thursday 30 Oct 2014 (Local Time) from KCVX Reporting Station
Overcast Overcast  
Wind Chill: 37°   Ceiling: 4000
Heat Index: 40°   Visibility: 10mi
Dew Point: 38°   Wind: 5mph
Humidity: 91%   Direction: 130°SE
Pressure: 30.09"   Gusts: NA
Location:  45.36°N, 85.1°W
Report Text: KCVX 301455Z AUTO 13004KT 10SM SCT030 BKN040 OVC070 05/03 A3009 RMK AO2 T00450031
Loading
Personal Weather Stations






























Interactive Weather Map
Tropical Storm Tracking
New forecast layout! Learn more

10-Day Weather Forecast

Advertisements
Track Severe Weather on mobile